Lewisville, Minnesota
Current Conditions -  °F | °C
As of 4:15 PM on Monday 26 Jan 2015 (Local Time) from KJYG Reporting Station
Broken Clouds Broken Clouds  
Wind Chill: 36°   Ceiling: 2700
Heat Index: 43°   Visibility: 10mi
Dew Point: 36°   Wind: 13mph
Humidity: 76%   Direction: 320°NW
Pressure: 29.86"   Gusts: 22mph
Location:  43.92°N, 94.44°W
Report Text: KJYG 262215Z AUTO 32011G19KT 10SM BKN027 06/02 A2986 RMK AO2
Loading
Personal Weather Stations






























Interactive Weather Map New forecast layout! Learn more

10-Day Weather Forecast

Advertisements
Track Severe Weather on mobile